Time;durP1;ratioP1;P1;durP2;ratioP2;P2;SDS_P1;SDS_P2;PMS_P1;PMS_P2;Temp;Humidity;BMP_temperature;BMP_pressure;BME280_temperature;BME280_humidity;BME280_pressure;Samples;Min_cycle;Max_cycle;Signal;HPM_P1;HPM_P2
2022/06/24 00:00:42;;;;;;;20.80;18.75;;;26.60;85.40;;;;;;5034966;28;20034;-69
2022/06/24 00:03:16;;;;;;;20.60;18.42;;;26.60;85.70;;;;;;5034714;28;20025;-69
2022/06/24 00:05:41;;;;;;;20.65;18.35;;;26.60;85.80;;;;;;5034861;28;20025;-69
2022/06/24 00:08:07;;;;;;;21.25;19.08;;;26.60;85.70;;;;;;5034415;28;20076;-69
2022/06/24 00:10:35;;;;;;;21.55;19.45;;;26.60;86.40;;;;;;5033404;28;20021;-69
2022/06/24 00:13:02;;;;;;;21.42;19.17;;;26.50;86.20;;;;;;5034479;28;20030;-70
2022/06/24 00:15:29;;;;;;;21.80;19.65;;;26.50;87.20;;;;;;5034614;28;20021;-70
2022/06/24 00:17:56;;;;;;;23.35;20.30;;;26.60;86.60;;;;;;5034363;28;20119;-72
2022/06/24 00:20:22;;;;;;;24.33;21.75;;;26.50;86.90;;;;;;5034889;28;20033;-69
2022/06/24 00:22:50;;;;;;;25.23;22.58;;;26.40;87.30;;;;;;5034432;28;20036;-68
2022/06/24 00:25:25;;;;;;;25.08;22.48;;;26.20;89.00;;;;;;5033951;28;20043;-68
2022/06/24 00:28:08;;;;;;;24.52;22.13;;;26.10;90.00;;;;;;5034414;28;20045;-68
2022/06/24 00:30:38;;;;;;;24.33;21.92;;;26.00;89.90;;;;;;5034441;28;20028;-72
2022/06/24 00:33:16;;;;;;;26.05;23.45;;;26.20;89.20;;;;;;5033334;28;20029;-68
2022/06/24 00:35:44;;;;;;;27.20;24.42;;;26.20;88.90;;;;;;5033988;28;20037;-69
2022/06/24 00:38:37;;;;;;;25.70;22.88;;;26.20;89.20;;;;;;5034321;28;20092;-69
2022/06/24 00:41:09;;;;;;;25.52;23.02;;;26.20;89.80;;;;;;5033610;28;20052;-69
2022/06/24 00:43:36;;;;;;;25.17;22.38;;;26.20;89.40;;;;;;5033900;28;20139;-68
2022/06/24 00:46:24;;;;;;;25.02;21.55;;;26.20;88.70;;;;;;5034111;28;20025;-68
2022/06/24 00:48:59;;;;;;;23.38;21.17;;;26.30;88.60;;;;;;5033738;28;20021;-68
2022/06/24 00:51:38;;;;;;;22.33;20.25;;;26.30;88.70;;;;;;5033865;28;20498;-68
2022/06/24 00:54:13;;;;;;;23.00;20.80;;;26.40;89.00;;;;;;5033860;28;20018;-68
2022/06/24 00:56:39;;;;;;;23.00;20.70;;;26.40;88.60;;;;;;5033713;28;20117;-68
2022/06/24 00:59:07;;;;;;;21.88;19.98;;;26.30;88.10;;;;;;5016039;28;20568;-68
2022/06/24 01:01:36;;;;;;;21.92;19.88;;;26.40;88.70;;;;;;5033871;28;20021;-68
2022/06/24 01:04:04;;;;;;;20.60;18.60;;;26.30;88.70;;;;;;5015872;28;20470;-68
2022/06/24 01:06:31;;;;;;;18.85;16.98;;;26.30;89.00;;;;;;5033272;28;20024;-69
2022/06/24 01:08:57;;;;;;;18.17;16.35;;;26.40;88.20;;;;;;5033757;28;20022;-68
2022/06/24 01:11:34;;;;;;;18.73;16.77;;;26.30;88.10;;;;;;5033615;28;20025;-68
2022/06/24 01:14:00;;;;;;;17.33;15.63;;;26.30;88.90;;;;;;5033563;28;20479;-69
2022/06/24 01:16:26;;;;;;;17.80;15.65;;;26.20;89.50;;;;;;5034002;28;20022;-69
2022/06/24 01:18:52;;;;;;;18.65;16.83;;;26.20;89.20;;;;;;5033289;28;20036;-72
2022/06/24 01:21:40;;;;;;;17.15;15.60;;;26.20;89.30;;;;;;5033154;28;20361;-72
2022/06/24 01:24:20;;;;;;;16.77;14.85;;;26.20;88.80;;;;;;5033260;28;20080;-73
2022/06/24 01:26:53;;;;;;;16.73;15.07;;;26.10;87.90;;;;;;5033392;28;20479;-72
2022/06/24 01:29:21;;;;;;;15.70;14.13;;;26.10;87.80;;;;;;5033228;28;20024;-73
2022/06/24 01:31:50;;;;;;;15.18;13.52;;;26.10;87.70;;;;;;5033441;28;20032;-72
2022/06/24 01:34:17;;;;;;;15.27;13.82;;;26.00;87.80;;;;;;5033785;28;20044;-72
2022/06/24 01:36:43;;;;;;;15.55;13.98;;;26.00;88.00;;;;;;5033384;28;20034;-71
2022/06/24 01:39:09;;;;;;;15.13;13.50;;;26.00;87.90;;;;;;5033039;28;20036;-73
2022/06/24 01:41:34;;;;;;;15.50;14.10;;;26.00;88.20;;;;;;5015503;28;20029;-72
2022/06/24 01:44:01;;;;;;;15.65;14.25;;;26.00;88.20;;;;;;5033159;28;20538;-73
2022/06/24 01:46:28;;;;;;;16.40;14.88;;;25.90;87.90;;;;;;5032916;28;20025;-73
2022/06/24 01:48:53;;;;;;;17.30;15.68;;;25.90;87.70;;;;;;5015122;28;20470;-72
2022/06/24 01:51:21;;;;;;;15.48;13.98;;;25.90;88.20;;;;;;5033287;28;20244;-73
2022/06/24 01:53:46;;;;;;;18.27;16.58;;;25.90;87.80;;;;;;5033571;28;20075;-72
2022/06/24 01:56:12;;;;;;;20.58;18.67;;;25.90;88.30;;;;;;5033412;28;20029;-72
2022/06/24 01:58:38;;;;;;;20.45;18.60;;;25.90;88.50;;;;;;5033063;28;20386;-72
2022/06/24 02:01:03;;;;;;;19.13;17.33;;;25.90;88.50;;;;;;5032767;28;20045;-73
2022/06/24 02:03:32;;;;;;;21.27;19.30;;;25.90;88.80;;;;;;5032497;28;20018;-73
2022/06/24 02:06:04;;;;;;;20.40;18.60;;;25.90;89.20;;;;;;5033078;28;20044;-73
2022/06/24 02:08:30;;;;;;;24.13;21.60;;;25.90;89.30;;;;;;5033131;28;20525;-71
2022/06/24 02:13:43;;;;;;;25.65;23.45;;;25.90;89.50;;;;;;5033060;28;20517;-73
2022/06/24 02:16:09;;;;;;;26.45;23.92;;;25.90;89.50;;;;;;5032673;28;20164;-73
2022/06/24 02:18:35;;;;;;;26.50;23.77;;;25.90;89.70;;;;;;5032684;28;20037;-72
2022/06/24 02:21:01;;;;;;;29.55;26.65;;;25.90;89.80;;;;;;5032778;28;20434;-72
2022/06/24 02:23:27;;;;;;;30.20;27.30;;;25.80;90.00;;;;;;5032503;28;20390;-73
2022/06/24 02:25:54;;;;;;;29.30;26.30;;;25.70;90.00;;;;;;5032603;28;20029;-73
2022/06/24 02:28:20;;;;;;;31.05;28.20;;;25.80;90.00;;;;;;5032693;28;20029;-73
2022/06/24 02:30:47;;;;;;;30.02;27.20;;;25.70;90.00;;;;;;5032567;28;20522;-72
2022/06/24 02:33:13;;;;;;;30.25;27.25;;;25.70;90.00;;;;;;5032423;28;20017;-73
2022/06/24 02:35:40;;;;;;;30.38;27.58;;;25.60;89.90;;;;;;5032600;28;20026;-73
2022/06/24 02:38:06;;;;;;;29.60;26.63;;;25.60;90.00;;;;;;5032631;28;20049;-73
2022/06/24 02:40:52;;;;;;;30.13;27.13;;;25.50;90.00;;;;;;5032301;28;20068;-73
2022/06/24 02:43:19;;;;;;;28.77;26.08;;;25.50;90.10;;;;;;5032348;28;20029;-73
2022/06/24 02:45:48;;;;;;;28.20;25.50;;;25.50;90.00;;;;;;5032483;28;20033;-72
2022/06/24 02:48:14;;;;;;;28.00;25.27;;;25.50;90.00;;;;;;5032482;28;20493;-73
2022/06/24 02:50:42;;;;;;;26.63;24.27;;;25.50;89.40;;;;;;5032504;28;20486;-73
2022/06/24 02:53:08;;;;;;;26.42;24.00;;;25.50;89.40;;;;;;5014569;28;20018;-71
2022/06/24 02:55:34;;;;;;;25.40;22.90;;;25.50;89.80;;;;;;5032653;28;20040;-73
2022/06/24 02:57:59;;;;;;;27.63;24.85;;;25.50;89.70;;;;;;5032694;28;20101;-73
2022/06/24 03:00:25;;;;;;;27.52;24.83;;;25.60;89.80;;;;;;5032206;28;20033;-73
2022/06/24 03:02:50;;;;;;;27.40;24.80;;;25.50;90.00;;;;;;5029494;28;20033;-69
2022/06/24 03:05:16;;;;;;;27.98;25.27;;;25.50;90.10;;;;;;5008750;28;20475;-68
2022/06/24 03:07:42;;;;;;;27.20;24.48;;;25.50;90.00;;;;;;5015636;28;20037;-68
2022/06/24 03:10:08;;;;;;;28.90;26.20;;;25.60;90.10;;;;;;5013357;28;20413;-69
2022/06/24 03:12:33;;;;;;;28.58;25.88;;;25.50;90.10;;;;;;5013368;28;20033;-68
2022/06/24 03:14:59;;;;;;;26.52;24.02;;;25.50;90.10;;;;;;5015702;28;20380;-68
2022/06/24 03:17:24;;;;;;;24.15;21.75;;;25.40;90.00;;;;;;5015675;28;20391;-68
2022/06/24 03:19:50;;;;;;;25.73;23.35;;;25.40;89.90;;;;;;5015904;28;20040;-68
2022/06/24 03:22:16;;;;;;;26.88;24.23;;;25.40;89.80;;;;;;5015861;28;20022;-72
2022/06/24 03:24:41;;;;;;;31.73;28.83;;;25.40;89.90;;;;;;5015909;28;20088;-73
2022/06/24 03:27:07;;;;;;;32.08;28.90;;;25.40;89.90;;;;;;5015544;28;20061;-72
2022/06/24 03:29:32;;;;;;;32.08;28.88;;;25.40;90.00;;;;;;5015336;28;20025;-72
2022/06/24 03:31:58;;;;;;;32.33;29.27;;;25.40;90.10;;;;;;5015970;28;20058;-72
2022/06/24 03:34:23;;;;;;;31.63;28.27;;;25.40;90.10;;;;;;4997848;28;20061;-71
2022/06/24 03:36:49;;;;;;;32.83;29.60;;;25.40;90.20;;;;;;5015593;28;20480;-72
2022/06/24 03:39:15;;;;;;;32.92;29.67;;;25.40;90.20;;;;;;5015480;28;20026;-71
2022/06/24 03:41:40;;;;;;;35.95;32.33;;;25.40;90.30;;;;;;5016144;28;20030;-72
2022/06/24 03:44:06;;;;;;;34.70;31.15;;;25.40;90.30;;;;;;5014504;28;20026;-72
2022/06/24 03:46:31;;;;;;;35.95;32.45;;;25.30;90.20;;;;;;5015567;28;20079;-73
2022/06/24 03:48:57;;;;;;;34.28;30.98;;;25.40;90.20;;;;;;5015419;28;20018;-71
2022/06/24 03:51:22;;;;;;;35.33;31.63;;;25.40;90.10;;;;;;5015266;28;20439;-73
2022/06/24 03:53:48;;;;;;;35.00;31.50;;;25.40;90.20;;;;;;5013890;28;20602;-73
2022/06/24 03:56:13;;;;;;;35.42;31.85;;;25.30;90.20;;;;;;5015213;28;20022;-72
2022/06/24 03:58:39;;;;;;;34.55;31.20;;;25.30;90.30;;;;;;5015081;28;20022;-73
2022/06/24 04:01:05;;;;;;;35.08;31.55;;;25.30;90.30;;;;;;5015187;28;20052;-72
2022/06/24 04:03:31;;;;;;;35.70;32.17;;;25.30;90.30;;;;;;5014810;28;20468;-73
2022/06/24 04:05:56;;;;;;;36.33;32.63;;;25.30;90.40;;;;;;5015034;28;20030;-73
2022/06/24 04:08:22;;;;;;;34.08;30.67;;;25.20;90.40;;;;;;5014790;28;20038;-72
2022/06/24 04:10:47;;;;;;;37.45;33.50;;;25.20;90.50;;;;;;5014898;28;20037;-73
2022/06/24 04:13:13;;;;;;;35.63;32.05;;;25.20;90.50;;;;;;5014758;28;20426;-72
2022/06/24 04:15:46;;;;;;;38.70;34.65;;;25.20;90.60;;;;;;5014674;28;20406;-72
2022/06/24 04:18:12;;;;;;;35.33;31.75;;;25.20;90.60;;;;;;5014543;28;20037;-72
2022/06/24 04:20:37;;;;;;;35.55;32.13;;;25.20;90.60;;;;;;5014743;28;20045;-73
2022/06/24 04:23:03;;;;;;;37.25;33.13;;;25.20;90.70;;;;;;5014883;28;20026;-73
2022/06/24 04:25:28;;;;;;;37.65;33.85;;;25.20;90.80;;;;;;5014535;28;20097;-73
2022/06/24 04:27:54;;;;;;;36.30;32.80;;;25.10;90.70;;;;;;5014418;28;20148;-73
2022/06/24 04:30:20;;;;;;;35.88;32.33;;;25.10;90.80;;;;;;5014597;28;20017;-72
2022/06/24 04:32:45;;;;;;;36.30;32.72;;;25.10;90.90;;;;;;5014554;28;20021;-73
2022/06/24 04:35:11;;;;;;;36.88;33.20;;;25.10;90.90;;;;;;5014320;28;20360;-71
2022/06/24 04:37:38;;;;;;;36.10;32.80;;;25.10;91.00;;;;;;5013460;28;20025;-72
2022/06/24 04:40:12;;;;;;;36.72;32.90;;;25.10;91.10;;;;;;5011837;28;20120;-71
2022/06/24 04:42:37;;;;;;;34.92;31.52;;;25.10;91.10;;;;;;5013740;28;20034;-73
2022/06/24 04:45:04;;;;;;;34.88;31.13;;;25.10;91.00;;;;;;5013044;28;20395;-73
2022/06/24 04:47:30;;;;;;;35.08;31.35;;;25.00;90.90;;;;;;5013999;28;20029;-73
2022/06/24 04:49:55;;;;;;;35.63;32.00;;;25.10;91.00;;;;;;5013096;28;20467;-73
2022/06/24 04:52:21;;;;;;;34.38;31.17;;;25.00;91.00;;;;;;5014123;28;20030;-72
2022/06/24 04:54:48;;;;;;;33.30;29.90;;;25.00;90.90;;;;;;5013858;28;20029;-73
2022/06/24 04:57:13;;;;;;;33.35;29.83;;;25.00;91.00;;;;;;5010893;28;20022;-73
2022/06/24 04:59:39;;;;;;;25.55;22.95;;;25.00;90.90;;;;;;5012665;28;20033;-72
2022/06/24 05:02:05;;;;;;;31.38;28.15;;;24.90;90.70;;;;;;5011390;28;20088;-69
2022/06/24 05:04:31;;;;;;;33.22;29.75;;;24.90;90.90;;;;;;4998742;28;20068;-71
2022/06/24 05:06:56;;;;;;;33.28;29.40;;;25.00;91.20;;;;;;5011836;28;20026;-70
2022/06/24 05:09:22;;;;;;;27.00;24.13;;;25.00;91.10;;;;;;5012075;28;20030;-69
2022/06/24 05:11:50;;;;;;;26.67;23.90;;;24.90;90.80;;;;;;5010144;28;20061;-69
2022/06/24 05:14:16;;;;;;;31.40;27.95;;;24.90;90.70;;;;;;5012969;28;20044;-68
2022/06/24 05:16:42;;;;;;;31.10;27.98;;;25.00;90.90;;;;;;5013220;28;20026;-70
2022/06/24 05:19:09;;;;;;;29.75;26.65;;;25.00;91.00;;;;;;5013541;28;20048;-69
2022/06/24 05:21:34;;;;;;;28.77;25.70;;;25.00;90.90;;;;;;5013469;28;20029;-69
2022/06/24 05:24:00;;;;;;;21.75;18.10;;;24.90;90.90;;;;;;5012373;28;20476;-69
2022/06/24 05:26:25;;;;;;;16.98;15.13;;;24.90;90.40;;;;;;5013896;28;20026;-72
2022/06/24 05:28:51;;;;;;;25.60;22.83;;;24.90;90.30;;;;;;5026070;28;20486;-69
2022/06/24 05:31:17;;;;;;;25.40;22.45;;;24.90;90.60;;;;;;5004940;28;20113;-73
2022/06/24 05:33:42;;;;;;;25.88;22.30;;;24.90;90.70;;;;;;4993706;28;20046;-73
2022/06/24 05:36:08;;;;;;;22.65;19.42;;;24.90;90.70;;;;;;5019175;28;20022;-73
2022/06/24 05:38:34;;;;;;;17.02;15.23;;;24.90;90.60;;;;;;5011513;28;20026;-73
2022/06/24 05:41:01;;;;;;;14.50;11.63;;;24.90;90.40;;;;;;5012723;28;20069;-73
2022/06/24 05:43:26;;;;;;;22.40;17.05;;;24.90;90.00;;;;;;4994482;28;20037;-73
2022/06/24 05:45:52;;;;;;;19.50;16.08;;;24.90;90.20;;;;;;5013155;28;20033;-73
2022/06/24 05:48:17;;;;;;;21.45;17.00;;;24.90;90.50;;;;;;5008567;28;20023;-73
2022/06/24 05:50:43;;;;;;;20.90;16.83;;;24.90;90.40;;;;;;5023347;28;20053;-72
2022/06/24 05:55:58;;;;;;;17.42;14.50;;;24.90;90.50;;;;;;5013179;28;20088;-73
2022/06/24 05:58:25;;;;;;;10.88;9.07;;;24.90;90.30;;;;;;5011797;28;20109;-73
2022/06/24 06:00:53;;;;;;;13.80;10.70;;;24.80;89.50;;;;;;5012954;28;20042;-74
2022/06/24 06:03:18;;;;;;;10.68;8.45;;;24.80;89.40;;;;;;5013519;28;20108;-72
2022/06/24 06:05:44;;;;;;;15.20;10.07;;;24.80;89.30;;;;;;5012506;28;20105;-72
2022/06/24 06:08:10;;;;;;;14.70;10.30;;;24.80;89.20;;;;;;5008496;28;20109;-73
2022/06/24 06:10:37;;;;;;;10.73;9.05;;;24.80;89.20;;;;;;5011150;28;20476;-72
2022/06/24 06:13:03;;;;;;;10.77;9.15;;;24.80;89.00;;;;;;5012516;28;20517;-72
2022/06/24 06:15:29;;;;;;;12.57;8.82;;;24.90;88.80;;;;;;5012789;28;20058;-72
2022/06/24 06:17:55;;;;;;;13.13;8.95;;;24.90;88.80;;;;;;5011397;28;20025;-73
2022/06/24 06:20:21;;;;;;;10.70;7.53;;;24.90;88.70;;;;;;5012157;28;20562;-72
2022/06/24 06:22:47;;;;;;;9.98;7.18;;;24.80;88.50;;;;;;5011884;28;20535;-72
2022/06/24 06:25:15;;;;;;;12.85;8.30;;;24.90;88.50;;;;;;5010526;28;20494;-72
2022/06/24 06:27:40;;;;;;;9.43;6.60;;;24.90;88.60;;;;;;5030272;28;20475;-73
2022/06/24 06:30:07;;;;;;;9.57;6.75;;;24.80;88.40;;;;;;4995518;28;20022;-73
2022/06/24 06:32:32;;;;;;;9.85;6.57;;;24.80;88.40;;;;;;5013079;28;20018;-72
2022/06/24 06:34:58;;;;;;;10.35;6.80;;;24.80;88.60;;;;;;5012559;28;20072;-72
2022/06/24 06:37:23;;;;;;;10.63;6.82;;;24.80;88.60;;;;;;5011147;28;20022;-72
2022/06/24 06:39:49;;;;;;;7.53;5.82;;;24.80;88.60;;;;;;5014316;28;20161;-72
2022/06/24 06:42:14;;;;;;;10.15;6.00;;;24.80;88.50;;;;;;5016126;28;20069;-72
2022/06/24 06:44:40;;;;;;;8.73;7.15;;;24.80;88.20;;;;;;5011902;28;20029;-73
2022/06/24 06:47:05;;;;;;;9.07;7.82;;;24.80;88.30;;;;;;5016262;28;20109;-72
2022/06/24 06:49:32;;;;;;;10.80;6.68;;;24.90;88.50;;;;;;5016162;28;20468;-71
2022/06/24 06:52:00;;;;;;;8.52;5.88;;;24.80;88.40;;;;;;5014928;28;20022;-73
2022/06/24 06:54:26;;;;;;;13.82;6.78;;;24.80;88.30;;;;;;5008577;28;20094;-72
2022/06/24 06:56:51;;;;;;;10.68;5.38;;;24.90;88.10;;;;;;5004740;28;20046;-72
2022/06/24 06:59:17;;;;;;;8.30;4.78;;;24.90;88.40;;;;;;5003803;28;20033;-73
2022/06/24 07:01:42;;;;;;;5.78;4.45;;;24.80;88.20;;;;;;5006587;28;20034;-73
2022/06/24 07:04:08;;;;;;;6.63;4.72;;;24.80;88.20;;;;;;5005295;28;20534;-72
2022/06/24 07:06:34;;;;;;;6.88;4.78;;;24.80;88.20;;;;;;5014673;28;20034;-72
2022/06/24 07:08:59;;;;;;;6.28;5.43;;;24.80;88.20;;;;;;5012918;28;20105;-73
2022/06/24 07:11:25;;;;;;;10.38;6.22;;;24.80;88.60;;;;;;5016581;28;20026;-69
2022/06/24 07:13:51;;;;;;;7.63;6.50;;;24.80;89.10;;;;;;5015468;28;20038;-72
2022/06/24 07:16:17;;;;;;;10.07;7.25;;;24.80;89.00;;;;;;5007417;28;20020;-70
2022/06/24 07:18:42;;;;;;;12.52;8.60;;;24.90;89.60;;;;;;5015537;28;20383;-69
2022/06/24 07:21:11;;;;;;;7.78;6.68;;;24.90;90.10;;;;;;5014553;28;20046;-69
2022/06/24 07:23:37;;;;;;;7.80;6.53;;;24.80;90.00;;;;;;5016762;28;20011;-70
2022/06/24 07:26:02;;;;;;;11.02;7.40;;;24.80;89.80;;;;;;5015054;28;20030;-69
2022/06/24 07:28:28;;;;;;;11.40;8.77;;;24.80;89.80;;;;;;5027985;28;20065;-70
2022/06/24 07:30:54;;;;;;;10.13;8.63;;;24.80;90.00;;;;;;5021434;28;20034;-69
2022/06/24 07:33:19;;;;;;;10.55;9.45;;;24.90;90.40;;;;;;5010282;28;20025;-70
2022/06/24 07:35:45;;;;;;;13.90;9.57;;;24.90;90.80;;;;;;5009655;28;20081;-69
2022/06/24 07:38:11;;;;;;;12.10;9.30;;;24.90;90.80;;;;;;5016967;28;20030;-70
2022/06/24 07:40:36;;;;;;;11.60;9.18;;;24.80;91.00;;;;;;5017652;28;20478;-70
2022/06/24 07:43:02;;;;;;;13.98;10.27;;;24.90;91.00;;;;;;5022397;28;20064;-72
2022/06/24 07:45:27;;;;;;;10.45;8.82;;;24.80;91.10;;;;;;5010071;28;20034;-70
2022/06/24 07:47:53;;;;;;;13.07;8.70;;;24.80;91.30;;;;;;5017638;28;20026;-73
2022/06/24 07:50:19;;;;;;;11.10;9.85;;;24.80;90.90;;;;;;4996162;28;20025;-73
2022/06/24 07:52:44;;;;;;;12.60;9.93;;;24.80;91.10;;;;;;5016115;28;20021;-73
2022/06/24 07:57:54;;;;;;;10.25;7.68;;;24.80;91.00;;;;;;5008653;28;20100;-73
2022/06/24 08:00:20;;;;;;;8.85;6.68;;;24.80;90.70;;;;;;5013858;28;20042;-73
2022/06/24 08:02:46;;;;;;;9.15;6.07;;;24.70;90.40;;;;;;5009753;28;20443;-71
2022/06/24 08:05:11;;;;;;;12.07;9.68;;;24.80;90.20;;;;;;5008851;28;20209;-72
2022/06/24 08:07:37;;;;;;;11.93;10.70;;;24.70;90.60;;;;;;5013624;28;20101;-72
2022/06/24 08:10:03;;;;;;;15.50;12.10;;;24.80;91.00;;;;;;5014305;28;20049;-72
2022/06/24 08:12:28;;;;;;;11.25;8.85;;;24.80;91.20;;;;;;5012900;28;20411;-71
2022/06/24 08:14:54;;;;;;;10.90;9.35;;;24.80;90.70;;;;;;5013652;28;20038;-72
2022/06/24 08:17:19;;;;;;;16.75;11.70;;;24.80;90.80;;;;;;5013952;28;20014;-70
2022/06/24 08:19:45;;;;;;;12.35;10.93;;;24.80;91.20;;;;;;5013410;28;20030;-70
2022/06/24 08:22:11;;;;;;;9.68;8.57;;;24.70;91.20;;;;;;5013839;28;20022;-69
2022/06/24 08:24:36;;;;;;;20.17;12.20;;;24.70;91.00;;;;;;5012715;28;20038;-72
2022/06/24 08:27:02;;;;;;;12.55;9.07;;;24.70;90.90;;;;;;5023201;28;20030;-72
2022/06/24 08:29:28;;;;;;;11.25;7.63;;;24.70;90.90;;;;;;5017959;28;20018;-72
2022/06/24 08:31:53;;;;;;;8.48;7.22;;;24.70;91.00;;;;;;5014357;28;20041;-71
2022/06/24 08:34:21;;;;;;;9.65;8.45;;;24.70;90.80;;;;;;5004905;28;20037;-73
2022/06/24 08:36:47;;;;;;;12.07;7.97;;;24.70;91.30;;;;;;5018088;28;20056;-72
2022/06/24 08:39:12;;;;;;;10.57;6.72;;;24.60;91.40;;;;;;5013397;28;20387;-70
2022/06/24 08:41:39;;;;;;;12.15;6.03;;;24.60;91.50;;;;;;5013724;28;20497;-69
2022/06/24 08:44:04;;;;;;;7.53;5.22;;;24.70;91.10;;;;;;5014092;28;20428;-69
2022/06/24 08:46:30;;;;;;;9.23;5.03;;;24.70;90.80;;;;;;5013071;28;20092;-72
2022/06/24 08:48:58;;;;;;;7.90;5.00;;;24.70;90.60;;;;;;5012857;28;20530;-72
2022/06/24 08:51:26;;;;;;;7.72;4.20;;;24.70;90.60;;;;;;5013489;28;20030;-70
2022/06/24 08:53:56;;;;;;;8.68;4.22;;;24.70;90.40;;;;;;5020595;28;20471;-71
2022/06/24 08:56:22;;;;;;;3.65;2.75;;;24.70;90.40;;;;;;5008664;28;20028;-69
2022/06/24 08:58:48;;;;;;;5.30;3.38;;;24.70;90.30;;;;;;5012452;28;20045;-74
2022/06/24 09:01:15;;;;;;;6.68;2.78;;;24.80;90.20;;;;;;4999331;28;20078;-73
2022/06/24 09:03:43;;;;;;;4.05;3.22;;;24.80;89.80;;;;;;4997982;28;20018;-71
2022/06/24 09:06:14;;;;;;;5.28;2.42;;;24.80;90.00;;;;;;5007776;28;20029;-70
2022/06/24 09:08:44;;;;;;;16.30;3.55;;;24.80;89.40;;;;;;5005706;28;20022;-79
2022/06/24 09:11:10;;;;;;;3.65;1.30;;;24.70;88.80;;;;;;5008495;28;20053;-80
2022/06/24 09:13:43;;;;;;;2.22;1.20;;;24.60;88.70;;;;;;5010904;28;20034;-75
2022/06/24 09:16:10;;;;;;;0.82;0.47;;;24.60;88.50;;;;;;5012522;28;20108;-75
2022/06/24 09:18:36;;;;;;;0.98;0.60;;;24.70;88.00;;;;;;5010049;28;20030;-74
2022/06/24 09:21:01;;;;;;;1.05;0.55;;;24.80;87.80;;;;;;5018170;28;20030;-75
2022/06/24 09:23:27;;;;;;;2.22;0.75;;;24.80;87.80;;;;;;5010078;28;20041;-76
2022/06/24 09:25:58;;;;;;;2.08;0.60;;;24.80;87.50;;;;;;5010459;28;20026;-76
2022/06/24 09:28:28;;;;;;;2.33;0.65;;;24.80;87.60;;;;;;5006548;28;20018;-76
2022/06/24 09:31:07;;;;;;;3.13;0.90;;;24.80;87.40;;;;;;5011258;28;20037;-79
2022/06/24 09:33:44;;;;;;;1.23;0.70;;;24.80;87.10;;;;;;5011214;28;20026;-78
2022/06/24 09:36:12;;;;;;;1.77;0.88;;;24.70;87.20;;;;;;5011596;28;20416;-79
2022/06/24 09:39:03;;;;;;;3.55;1.02;;;24.70;86.50;;;;;;5014587;28;20371;-78
2022/06/24 09:41:30;;;;;;;2.22;0.98;;;24.60;86.40;;;;;;5011583;28;20124;-77
2022/06/24 09:43:59;;;;;;;2.03;0.85;;;24.60;85.40;;;;;;5010262;28;20030;-79
2022/06/24 09:46:25;;;;;;;22.33;2.05;;;24.60;86.60;;;;;;5009530;28;20029;-78
2022/06/24 09:49:00;;;;;;;3.28;1.00;;;24.70;89.00;;;;;;5006786;28;20439;-79
2022/06/24 09:51:28;;;;;;;4.63;0.98;;;24.70;89.30;;;;;;5011056;28;20013;-79
2022/06/24 09:53:54;;;;;;;3.17;1.13;;;24.80;88.30;;;;;;4996378;28;20491;-78
2022/06/24 09:56:20;;;;;;;3.45;1.00;;;24.80;88.70;;;;;;5004428;28;20061;-80
2022/06/24 10:01:34;;;;;;;2.80;0.90;;;24.70;89.20;;;;;;5006486;28;20077;-79
2022/06/24 10:04:03;;;;;;;2.40;1.10;;;24.80;89.50;;;;;;5008669;28;20032;-79
2022/06/24 10:06:31;;;;;;;2.10;1.15;;;24.80;89.30;;;;;;4993194;28;20120;-77
2022/06/24 10:09:01;;;;;;;2.13;0.75;;;24.70;89.50;;;;;;5007971;28;20080;-79
2022/06/24 10:11:27;;;;;;;3.05;1.17;;;24.80;89.30;;;;;;5009447;28;20022;-80
2022/06/24 10:13:54;;;;;;;3.92;1.10;;;24.80;89.60;;;;;;4998665;28;20041;-73
2022/06/24 10:16:21;;;;;;;3.38;1.30;;;24.70;89.40;;;;;;5009705;28;20560;-79
2022/06/24 10:18:49;;;;;;;3.20;1.02;;;24.80;89.60;;;;;;4994149;28;20022;-77
2022/06/24 10:21:17;;;;;;;2.42;1.13;;;24.80;89.50;;;;;;5013937;28;20033;-78
2022/06/24 10:23:50;;;;;;;6.82;4.20;;;24.80;89.50;;;;;;4997660;28;20512;-73
2022/06/24 10:26:30;;;;;;;6.18;2.47;;;24.80;89.80;;;;;;5007017;28;20121;-80
2022/06/24 10:29:04;;;;;;;4.97;2.53;;;24.80;89.60;;;;;;5024061;28;20045;-78
2022/06/24 10:31:45;;;;;;;4.65;2.13;;;24.90;89.60;;;;;;4995675;28;20088;-77
2022/06/24 10:34:12;;;;;;;6.03;3.15;;;24.80;89.40;;;;;;4994620;28;20034;-78
2022/06/24 10:36:38;;;;;;;12.57;8.85;;;24.90;90.20;;;;;;5012768;28;20510;-79
2022/06/24 10:39:16;;;;;;;6.13;2.58;;;24.90;90.80;;;;;;5012770;28;20061;-75
2022/06/24 10:41:42;;;;;;;10.57;6.22;;;25.00;89.60;;;;;;4990907;28;20034;-77
2022/06/24 10:44:26;;;;;;;9.07;5.50;;;24.90;91.10;;;;;;5010806;28;20044;-76
2022/06/24 10:47:04;;;;;;;8.80;4.45;;;24.90;90.20;;;;;;5013199;28;20045;-76
2022/06/24 10:49:52;;;;;;;6.03;3.55;;;24.90;89.90;;;;;;5012504;28;20084;-74
2022/06/24 10:52:33;;;;;;;14.38;9.27;;;25.00;90.40;;;;;;5021379;28;20120;-76
2022/06/24 10:55:18;;;;;;;10.07;6.03;;;24.80;90.50;;;;;;4998057;28;20026;-76
2022/06/24 10:57:45;;;;;;;8.80;5.45;;;24.80;90.40;;;;;;5006345;28;20034;-75
2022/06/24 11:00:15;;;;;;;9.77;7.03;;;24.80;90.40;;;;;;5014635;28;20540;-75
2022/06/24 11:02:45;;;;;;;13.77;9.95;;;24.90;90.30;;;;;;5012410;28;20530;-74
2022/06/24 11:05:23;;;;;;;8.93;6.40;;;24.80;90.50;;;;;;4997727;28;20026;-78
2022/06/24 11:07:51;;;;;;;10.57;5.85;;;24.90;90.10;;;;;;5001592;28;20036;-73
2022/06/24 11:10:21;;;;;;;13.70;8.30;;;24.90;90.00;;;;;;5010744;28;20475;-80
2022/06/24 11:12:58;;;;;;;11.05;6.03;;;24.80;90.20;;;;;;4996492;28;20038;-77
2022/06/24 11:15:40;;;;;;;11.32;7.30;;;24.90;90.00;;;;;;4995145;28;20056;-75
2022/06/24 11:18:13;;;;;;;14.13;7.55;;;24.90;90.10;;;;;;5008680;28;20030;-77
2022/06/24 11:20:47;;;;;;;14.75;8.65;;;24.90;90.00;;;;;;5009736;28;20117;-77
2022/06/24 11:23:15;;;;;;;14.73;9.35;;;25.00;90.00;;;;;;5004601;28;20025;-78
2022/06/24 11:25:49;;;;;;;15.55;13.52;;;25.00;90.00;;;;;;5009676;28;20106;-76
2022/06/24 11:28:18;;;;;;;17.48;11.85;;;24.90;90.20;;;;;;5009984;28;20026;-73
2022/06/24 11:30:44;;;;;;;18.67;11.52;;;24.90;90.40;;;;;;5011115;28;20021;-74
2022/06/24 11:33:09;;;;;;;16.63;11.50;;;25.00;90.10;;;;;;5011172;28;20030;-75
2022/06/24 11:35:35;;;;;;;17.23;11.57;;;25.00;90.20;;;;;;5011601;28;20056;-76
2022/06/24 11:38:05;;;;;;;16.35;12.77;;;25.00;90.20;;;;;;4995699;28;20125;-75
2022/06/24 11:40:32;;;;;;;22.85;13.63;;;25.10;90.10;;;;;;5013587;28;20041;-74
2022/06/24 11:43:11;;;;;;;17.85;14.07;;;25.00;90.40;;;;;;4989817;28;20058;-78
2022/06/24 11:45:48;;;;;;;21.42;16.98;;;25.20;90.00;;;;;;5011607;28;20133;-78
2022/06/24 11:48:22;;;;;;;29.02;17.02;;;25.10;90.00;;;;;;5011944;28;20017;-79
2022/06/24 11:50:48;;;;;;;36.42;20.67;;;25.10;90.20;;;;;;5011049;28;20135;-77
2022/06/24 11:53:14;;;;;;;50.13;34.28;;;25.10;90.00;;;;;;5010987;28;20022;-76
2022/06/24 11:55:40;;;;;;;50.67;36.53;;;25.00;88.60;;;;;;4991725;28;20028;-77
2022/06/24 11:58:08;;;;;;;41.40;27.77;;;25.00;89.20;;;;;;5010888;28;20592;-78
2022/06/24 12:00:39;;;;;;;46.83;28.55;;;24.90;90.20;;;;;;5002874;28;20042;-77
2022/06/24 12:03:07;;;;;;;41.03;27.77;;;25.00;90.40;;;;;;5008456;28;20027;-78
2022/06/24 12:05:36;;;;;;;42.50;27.63;;;24.90;87.60;;;;;;5009508;28;20030;-77
2022/06/24 12:08:02;;;;;;;40.42;27.13;;;24.90;90.10;;;;;;5005930;28;20560;-78
2022/06/24 12:10:28;;;;;;;43.30;26.30;;;24.90;88.30;;;;;;5012105;28;20065;-78
2022/06/24 12:12:56;;;;;;;44.85;26.90;;;25.00;90.20;;;;;;5011490;28;20104;-79
2022/06/24 12:15:50;;;;;;;46.50;30.00;;;25.00;90.00;;;;;;5008767;28;20045;-78
2022/06/24 12:18:21;;;;;;;43.88;26.35;;;25.00;89.60;;;;;;5007690;28;20077;-78
2022/06/24 12:21:05;;;;;;;42.00;25.42;;;25.10;90.00;;;;;;5008396;28;20352;-77
2022/06/24 12:23:35;;;;;;;41.33;26.15;;;25.10;90.00;;;;;;5008898;28;20088;-70
2022/06/24 12:26:06;;;;;;;33.35;22.23;;;25.10;90.00;;;;;;5006303;28;20044;-74
2022/06/24 12:28:32;;;;;;;43.10;25.67;;;25.10;88.20;;;;;;4993391;28;20395;-77
2022/06/24 12:31:02;;;;;;;26.10;15.90;;;25.20;89.30;;;;;;4993521;28;20033;-78
2022/06/24 12:33:31;;;;;;;19.08;13.43;;;25.10;87.10;;;;;;5016844;28;20022;-74
2022/06/24 12:36:12;;;;;;;41.80;24.23;;;25.10;86.40;;;;;;5012998;28;20029;-77
2022/06/24 12:38:53;;;;;;;34.08;22.35;;;25.10;88.80;;;;;;5013020;28;20036;-72
2022/06/24 12:41:20;;;;;;;22.73;16.40;;;25.10;88.60;;;;;;4989703;28;20078;-78
2022/06/24 12:43:53;;;;;;;14.93;10.73;;;25.10;87.20;;;;;;5008464;28;20077;-76
2022/06/24 12:46:24;;;;;;;24.48;15.38;;;25.10;86.50;;;;;;5012041;28;20132;-75
2022/06/24 12:51:46;;;;;;;23.50;15.13;;;25.10;86.10;;;;;;5011967;28;20107;-76